createdAt,value
2023-01-19T08:58:18.834Z,96310.40
2023-01-19T09:09:08.077Z,96301.40
2023-01-19T09:15:16.202Z,96314.40
2023-01-19T09:17:44.439Z,96312.40
2023-01-19T09:20:32.436Z,96311.20
2023-01-19T09:23:17.137Z,96295.80
2023-01-19T09:25:55.465Z,96290.80
2023-01-19T09:28:23.729Z,96290.80
2023-01-19T09:30:52.525Z,96292.80
2023-01-19T09:33:20.994Z,96299.20
2023-01-19T09:35:52.459Z,96298.20
2023-01-19T09:38:22.562Z,96292.00
2023-01-19T09:40:54.981Z,96296.00
2023-01-19T09:43:42.211Z,96296.60
2023-01-19T09:46:25.985Z,96301.00
2023-01-19T09:48:56.878Z,96300.60
2023-01-19T09:51:36.941Z,96298.20
2023-01-19T09:54:16.410Z,96301.20
2023-01-19T09:56:52.432Z,96299.80
2023-01-19T09:59:24.702Z,96286.20
2023-01-19T10:02:24.791Z,96275.80
2023-01-19T10:05:25.472Z,96273.20
2023-01-19T10:08:19.928Z,96262.80
2023-01-19T10:10:54.624Z,96264.80
2023-01-19T10:13:54.571Z,96267.40
2023-01-19T10:16:51.426Z,96277.20
2023-01-19T10:19:47.417Z,96281.00
2023-01-19T10:22:27.381Z,96281.40
2023-01-19T10:25:02.211Z,96285.60
2023-01-19T10:27:31.110Z,96275.20
2023-01-19T10:29:59.622Z,96270.80
2023-01-19T10:32:38.462Z,96273.00
2023-01-19T10:35:22.012Z,96264.20
2023-01-19T10:37:51.854Z,96259.40
2023-01-19T10:40:32.251Z,96256.00
2023-01-19T10:43:38.379Z,96256.20
2023-01-19T10:46:10.649Z,96262.20
2023-01-19T10:48:47.671Z,96255.00
2023-01-19T10:51:19.283Z,96254.00
2023-01-19T10:54:02.375Z,96262.20
2023-01-19T10:56:39.597Z,96262.40
2023-01-19T10:59:28.998Z,96258.40
2023-01-19T11:02:26.756Z,96255.00
2023-01-19T11:05:02.077Z,96267.60
2023-01-19T11:07:33.917Z,96267.20
2023-01-19T11:10:17.656Z,96270.40
2023-01-19T11:12:48.893Z,96267.40
2023-01-19T11:15:25.467Z,96265.60
2023-01-19T11:17:53.691Z,96260.80
2023-01-19T11:20:44.192Z,96257.40
2023-01-19T11:23:33.984Z,96264.00
2023-01-19T11:26:03.250Z,96256.20
2023-01-19T11:28:39.306Z,96253.40
2023-01-19T11:31:10.413Z,96257.40
2023-01-19T11:33:50.735Z,96254.00
2023-01-19T11:36:22.465Z,96254.60
2023-01-19T11:38:55.515Z,96246.60
2023-01-19T11:41:33.529Z,96244.80
2023-01-19T11:44:49.398Z,96254.80
2023-01-19T11:47:21.504Z,96245.80
2023-01-19T11:49:55.208Z,96251.40
2023-01-19T11:52:26.406Z,96246.00
2023-01-19T11:54:58.024Z,96248.80
2023-01-19T11:57:26.388Z,96252.80
2023-01-19T12:00:03.792Z,96251.40
2023-01-19T12:02:44.181Z,96265.00
2023-01-19T12:05:14.778Z,96263.80
2023-01-19T12:07:43.586Z,96260.40
2023-01-19T12:10:14.814Z,96269.20
2023-01-19T12:12:47.945Z,96269.00
2023-01-19T12:15:36.549Z,96267.00
2023-01-19T12:18:05.853Z,96266.80
2023-01-19T12:20:39.117Z,96281.20
2023-01-19T12:23:34.067Z,96280.60
2023-01-19T12:26:24.154Z,96286.60
2023-01-19T12:29:01.225Z,96279.00
2023-01-19T12:31:30.104Z,96277.00
2023-01-19T12:34:31.542Z,96285.20
2023-01-19T12:37:06.891Z,96299.40
2023-01-19T12:39:49.162Z,96303.40
2023-01-19T12:42:21.441Z,96306.40
2023-01-19T12:44:49.812Z,96313.20
2023-01-19T12:47:20.353Z,96315.20
2023-01-19T12:50:05.972Z,96321.20
2023-01-19T12:52:48.027Z,96323.60
2023-01-19T12:55:22.962Z,96332.60
2023-01-19T12:57:57.399Z,96347.80
2023-01-19T13:00:28.540Z,96347.40
2023-01-19T13:02:58.433Z,96340.20
2023-01-19T13:05:33.634Z,96344.80
2023-01-19T13:08:01.908Z,96355.80
2023-01-19T13:11:05.123Z,96362.20
2023-01-19T13:13:40.454Z,96357.40
2023-01-19T13:16:27.862Z,96356.20
2023-01-19T13:19:08.740Z,96345.60
2023-01-19T13:21:46.425Z,96326.40
2023-01-19T13:24:22.510Z,96321.00
2023-01-19T13:26:50.809Z,96328.00
2023-01-19T13:29:35.486Z,96336.00
2023-01-19T13:32:16.980Z,96340.00
2023-01-19T13:34:47.236Z,96344.20
2023-01-19T13:37:22.977Z,96348.00
2023-01-19T13:39:52.648Z,96343.20
2023-01-19T13:42:44.731Z,96341.20
2023-01-19T13:45:33.859Z,96333.40
2023-01-19T13:48:19.272Z,96347.80
2023-01-19T13:51:28.314Z,96355.60
2023-01-19T13:54:02.143Z,96348.80
2023-01-19T13:56:40.338Z,96347.60
2023-01-19T13:59:12.693Z,96344.00
2023-01-19T14:01:45.386Z,96346.80
2023-01-19T14:04:27.493Z,96345.20
2023-01-19T14:06:57.776Z,96350.60
2023-01-19T14:09:36.431Z,96364.80
2023-01-19T14:12:14.401Z,96361.60
2023-01-19T14:15:14.498Z,96374.40
2023-01-19T14:17:42.927Z,96383.80
2023-01-19T14:21:06.195Z,96384.00
2023-01-19T14:24:09.386Z,96384.60
2023-01-19T14:26:37.605Z,96389.20
2023-01-19T14:29:28.469Z,96390.20
2023-01-19T14:32:06.892Z,96388.60
2023-01-19T14:34:46.268Z,96392.00
2023-01-19T14:37:19.848Z,96406.60
2023-01-19T14:39:52.094Z,96399.40
2023-01-19T14:42:57.563Z,96403.80
2023-01-19T14:45:33.195Z,96398.80
2023-01-19T14:48:04.224Z,96398.20
2023-01-19T14:50:51.173Z,96398.60
2023-01-19T14:53:26.765Z,96399.00
2023-01-19T14:55:57.018Z,96393.40
2023-01-19T14:58:26.436Z,96389.40
2023-01-19T15:00:58.402Z,96382.60
2023-01-19T15:03:43.474Z,96384.00
2023-01-19T15:06:17.154Z,96381.00
2023-01-19T15:08:50.182Z,96392.40
2023-01-19T15:11:31.408Z,96397.20
2023-01-19T15:14:09.327Z,96407.80
2023-01-19T15:16:37.486Z,96401.80
2023-01-19T15:19:05.963Z,96399.00
2023-01-19T15:21:34.075Z,96402.60
2023-01-19T15:24:12.868Z,96414.60
2023-01-19T15:26:42.859Z,96421.00
2023-01-19T15:29:24.548Z,96422.40
2023-01-19T15:31:52.913Z,96424.20
2023-01-19T15:34:30.392Z,96428.00
2023-01-19T15:37:00.059Z,96433.80
2023-01-19T15:39:28.403Z,96436.20
2023-01-19T15:42:03.963Z,96445.80
2023-01-19T15:44:32.257Z,96450.00
2023-01-19T15:47:03.810Z,96456.40
2023-01-19T15:49:32.113Z,96465.00
2023-01-19T15:52:00.283Z,96473.20
2023-01-19T15:54:28.746Z,96479.60
2023-01-19T15:56:59.534Z,96485.00
2023-01-19T15:59:27.933Z,96489.80
2023-01-19T16:01:56.623Z,96500.40
2023-01-19T16:04:25.079Z,96509.40
2023-01-19T16:06:53.623Z,96508.60
2023-01-19T16:09:22.394Z,96515.80
2023-01-19T16:11:50.791Z,96526.00
2023-01-19T16:14:19.154Z,96530.40
2023-01-19T16:17:05.974Z,96534.60
2023-01-19T16:19:34.529Z,96540.00
2023-01-19T16:22:05.797Z,96552.80
2023-01-19T16:24:44.232Z,96546.40
2023-01-19T16:27:12.643Z,96556.00
2023-01-19T16:29:41.135Z,96564.60
2023-01-19T16:32:09.519Z,96565.00
2023-01-19T16:34:46.577Z,96563.40
2023-01-19T16:37:14.836Z,96569.00
2023-01-19T16:39:46.227Z,96575.00
2023-01-19T16:42:16.704Z,96572.40
2023-01-19T16:44:45.178Z,96578.00
2023-01-19T16:47:13.615Z,96575.40
2023-01-19T16:49:44.595Z,96578.00
2023-01-19T16:52:13.143Z,96565.80
2023-01-19T16:54:47.417Z,96551.40
2023-01-19T16:57:20.938Z,96553.00
2023-01-19T17:00:10.755Z,96562.60
2023-01-19T17:02:39.136Z,96533.40
2023-01-19T17:05:08.699Z,96521.00
2023-01-19T17:07:39.783Z,96524.00
2023-01-19T17:10:09.805Z,96541.20
2023-01-19T17:12:41.243Z,96553.80
2023-01-19T17:15:09.926Z,96562.80
2023-01-19T17:17:38.272Z,96575.00
2023-01-19T17:20:07.598Z,96571.20
2023-01-19T17:22:43.382Z,96583.00
2023-01-19T17:25:11.719Z,96579.00
2023-01-19T17:27:40.124Z,96579.00
2023-01-19T17:30:09.855Z,96578.00
2023-01-19T17:32:45.934Z,96581.20
2023-01-19T17:35:14.250Z,96587.60
2023-01-19T17:37:53.529Z,96593.00
2023-01-19T17:40:26.277Z,96595.20
2023-01-19T17:43:06.259Z,96597.20
2023-01-19T17:45:50.240Z,96614.60
2023-01-19T17:48:37.154Z,96619.00
2023-01-19T17:51:09.899Z,96611.40
2023-01-19T17:53:51.410Z,96612.00
2023-01-19T17:56:36.999Z,96625.20
2023-01-19T17:59:27.259Z,96632.00
2023-01-19T18:02:03.267Z,96637.40
2023-01-19T18:04:42.754Z,96632.20
2023-01-19T18:07:29.522Z,96634.40
2023-01-19T18:10:06.433Z,96644.60
2023-01-19T18:12:46.747Z,96648.00
2023-01-19T18:15:23.247Z,96650.80
2023-01-19T18:17:51.821Z,96655.20
2023-01-19T18:20:24.855Z,96658.60
2023-01-19T18:22:55.899Z,96662.00
2023-01-19T18:25:34.255Z,96664.80
2023-01-19T18:28:13.151Z,96665.40
2023-01-19T18:31:01.135Z,96672.00
2023-01-19T18:33:45.591Z,96665.60
2023-01-19T18:36:32.116Z,96671.40
2023-01-19T18:39:21.002Z,96685.00
2023-01-19T18:42:11.852Z,96692.80
2023-01-19T18:44:48.813Z,96699.80
2023-01-19T18:47:42.167Z,96705.40
2023-01-19T18:50:21.482Z,96716.00
2023-01-19T18:53:14.783Z,96716.40
2023-01-19T18:56:20.561Z,96715.60
2023-01-19T18:59:15.070Z,96707.60
2023-01-19T19:01:59.338Z,96707.20
2023-01-19T19:04:42.333Z,96709.60
2023-01-19T19:07:22.705Z,96703.60
2023-01-19T19:09:59.972Z,96708.80
2023-01-19T19:12:33.391Z,96716.40
2023-01-19T19:15:29.813Z,96712.80
2023-01-19T19:18:08.999Z,96707.40
2023-01-19T19:20:45.296Z,96700.00
2023-01-19T19:23:33.335Z,96691.80
2023-01-19T19:26:33.601Z,96679.80
2023-01-19T19:29:07.708Z,96682.40
2023-01-19T19:31:46.859Z,96684.60
2023-01-19T19:34:27.958Z,96685.40
2023-01-19T19:37:08.149Z,96691.00
2023-01-19T19:39:46.680Z,96695.20
2023-01-19T19:42:32.016Z,96696.60
2023-01-19T19:45:11.495Z,96698.40
2023-01-19T19:47:51.124Z,96707.20
2023-01-19T19:50:30.396Z,96705.60
2023-01-19T19:53:07.509Z,96710.20
2023-01-19T19:55:47.795Z,96712.20
2023-01-19T19:58:39.425Z,96713.80
2023-01-19T20:01:21.228Z,96710.80
2023-01-19T20:03:59.808Z,96711.00
2023-01-19T20:06:40.805Z,96713.20
2023-01-19T20:09:12.996Z,96708.00
2023-01-19T20:11:55.798Z,96707.60
2023-01-19T20:14:32.807Z,96713.80
2023-01-19T20:17:19.267Z,96701.80
2023-01-19T20:19:55.095Z,96706.20
2023-01-19T20:22:33.435Z,96702.80
2023-01-19T20:25:09.891Z,96700.20
2023-01-19T20:27:49.283Z,96713.00
2023-01-19T20:30:24.014Z,96717.00
2023-01-19T20:32:58.078Z,96717.40
2023-01-19T20:35:31.035Z,96725.00
2023-01-19T20:38:06.974Z,96728.40
2023-01-19T20:40:50.487Z,96733.80
2023-01-19T20:43:30.729Z,96732.80
2023-01-19T20:46:06.391Z,96738.80
2023-01-19T20:48:50.691Z,96751.80
2023-01-19T20:51:26.869Z,96756.20
2023-01-19T20:54:07.407Z,96758.60
2023-01-19T20:56:49.297Z,96754.60
2023-01-19T20:59:38.455Z,96753.60
2023-01-19T21:02:17.790Z,96760.40
2023-01-19T21:04:57.678Z,96767.40
2023-01-19T21:07:38.414Z,96766.80
2023-01-19T21:10:15.272Z,96765.40
2023-01-19T21:13:07.002Z,96775.40
2023-01-19T21:15:48.750Z,96770.60
2023-01-19T21:18:27.903Z,96763.00
2023-01-19T21:21:04.226Z,96766.60
2023-01-19T21:23:41.726Z,96771.80
2023-01-19T21:26:15.333Z,96778.80
2023-01-19T21:28:52.295Z,96776.40
2023-01-19T21:31:34.047Z,96786.40
2023-01-19T21:34:07.489Z,96773.40
2023-01-19T21:36:56.323Z,96775.40
2023-01-19T21:39:36.220Z,96793.20
2023-01-19T21:42:19.796Z,96797.80
2023-01-19T21:44:56.997Z,96800.60
2023-01-19T21:47:43.009Z,96793.40
2023-01-19T21:50:22.378Z,96780.40
2023-01-19T21:52:58.699Z,96780.80
2023-01-19T21:55:35.786Z,96782.60
2023-01-19T21:58:14.473Z,96776.80
2023-01-19T22:00:54.285Z,96788.00
2023-01-19T22:03:30.740Z,96799.80
2023-01-19T22:06:08.412Z,96809.00
2023-01-19T22:08:58.444Z,96807.20
2023-01-19T22:11:35.890Z,96797.20
2023-01-19T22:14:12.811Z,96795.20
2023-01-19T22:16:51.058Z,96786.20
2023-01-19T22:19:24.866Z,96773.80
2023-01-19T22:22:03.725Z,96768.80
2023-01-19T22:24:39.598Z,96768.60
2023-01-19T22:27:19.557Z,96772.40
2023-01-19T22:29:50.640Z,96766.00
2023-01-19T22:32:21.880Z,96763.00
2023-01-19T22:35:05.335Z,96765.60
2023-01-19T22:37:45.284Z,96775.20
2023-01-19T22:40:21.179Z,96769.40
2023-01-19T22:42:54.964Z,96771.40
2023-01-19T22:45:36.243Z,96765.60
2023-01-19T22:48:09.279Z,96764.80
2023-01-19T22:50:47.953Z,96764.00
2023-01-19T22:53:18.627Z,96757.40
2023-01-19T22:55:54.832Z,96744.00
2023-01-19T22:58:31.998Z,96744.40
2023-01-19T23:01:08.350Z,96751.80
2023-01-19T23:03:46.236Z,96758.80
2023-01-19T23:06:27.121Z,96765.20
2023-01-19T23:09:08.585Z,96760.60
2023-01-19T23:11:44.257Z,96757.00
2023-01-19T23:14:21.749Z,96766.80
2023-01-19T23:16:55.854Z,96765.60
2023-01-19T23:19:30.122Z,96751.80
2023-01-19T23:22:07.039Z,96753.20
2023-01-19T23:24:40.461Z,96766.60
2023-01-19T23:27:12.050Z,96766.20
2023-01-19T23:29:47.832Z,96755.40
2023-01-19T23:32:21.200Z,96757.00
2023-01-19T23:34:52.747Z,96760.20
2023-01-19T23:37:26.725Z,96765.00
2023-01-19T23:40:02.931Z,96754.20
2023-01-19T23:42:36.715Z,96753.40
2023-01-19T23:45:21.055Z,96760.60
2023-01-19T23:48:00.009Z,96768.40
2023-01-19T23:50:34.663Z,96765.60
2023-01-19T23:53:30.839Z,96762.40
2023-01-19T23:56:19.158Z,96765.00
2023-01-19T23:59:18.771Z,96763.60
